sensor_id;sensor_type;location;lat;lon;timestamp;temperature;humidity
29731;DHT22;16639;51.488;0.152;2023-12-14T00:00:06;7.10;99.90
29731;DHT22;16639;51.488;0.152;2023-12-14T00:02:35;7.10;99.90
29731;DHT22;16639;51.488;0.152;2023-12-14T00:05:04;7.00;99.90
29731;DHT22;16639;51.488;0.152;2023-12-14T00:07:31;7.10;99.90
29731;DHT22;16639;51.488;0.152;2023-12-14T00:09:59;7.10;99.90
29731;DHT22;16639;51.488;0.152;2023-12-14T00:12:26;7.10;99.90
29731;DHT22;16639;51.488;0.152;2023-12-14T00:14:53;7.10;99.90
29731;DHT22;16639;51.488;0.152;2023-12-14T00:17:21;7.10;99.90
29731;DHT22;16639;51.488;0.152;2023-12-14T00:19:48;7.10;99.90
29731;DHT22;16639;51.488;0.152;2023-12-14T00:22:16;7.10;99.90
29731;DHT22;16639;51.488;0.152;2023-12-14T00:24:43;7.10;99.90
29731;DHT22;16639;51.488;0.152;2023-12-14T00:27:11;7.10;99.90
29731;DHT22;16639;51.488;0.152;2023-12-14T00:29:38;7.00;99.90
29731;DHT22;16639;51.488;0.152;2023-12-14T00:32:06;7.30;99.90
29731;DHT22;16639;51.488;0.152;2023-12-14T00:34:33;7.10;99.90
29731;DHT22;16639;51.488;0.152;2023-12-14T00:37:01;7.10;99.90
29731;DHT22;16639;51.488;0.152;2023-12-14T00:39:28;7.10;99.90
29731;DHT22;16639;51.488;0.152;2023-12-14T00:41:55;7.30;99.90
29731;DHT22;16639;51.488;0.152;2023-12-14T00:44:23;7.00;99.90
29731;DHT22;16639;51.488;0.152;2023-12-14T00:46:50;7.10;99.90
29731;DHT22;16639;51.488;0.152;2023-12-14T00:49:17;7.00;99.90
29731;DHT22;16639;51.488;0.152;2023-12-14T00:51:46;7.00;99.90
29731;DHT22;16639;51.488;0.152;2023-12-14T00:54:14;7.00;99.90
29731;DHT22;16639;51.488;0.152;2023-12-14T00:56:41;7.10;99.90
29731;DHT22;16639;51.488;0.152;2023-12-14T00:59:09;7.00;99.90
29731;DHT22;16639;51.488;0.152;2023-12-14T01:01:36;7.00;99.90
29731;DHT22;16639;51.488;0.152;2023-12-14T01:04:04;6.90;99.90
29731;DHT22;16639;51.488;0.152;2023-12-14T01:06:32;7.00;99.90
29731;DHT22;16639;51.488;0.152;2023-12-14T01:08:59;7.00;99.90
29731;DHT22;16639;51.488;0.152;2023-12-14T01:11:27;7.00;99.90
29731;DHT22;16639;51.488;0.152;2023-12-14T01:13:54;7.10;99.90
29731;DHT22;16639;51.488;0.152;2023-12-14T01:16:26;7.00;99.90
29731;DHT22;16639;51.488;0.152;2023-12-14T01:18:53;7.00;99.90
29731;DHT22;16639;51.488;0.152;2023-12-14T01:21:21;7.00;99.90
29731;DHT22;16639;51.488;0.152;2023-12-14T01:23:48;7.00;99.90
29731;DHT22;16639;51.488;0.152;2023-12-14T01:26:16;8.30;99.90
29731;DHT22;16639;51.488;0.152;2023-12-14T01:28:45;6.90;99.90
29731;DHT22;16639;51.488;0.152;2023-12-14T01:31:13;8.10;99.90
29731;DHT22;16639;51.488;0.152;2023-12-14T01:33:41;7.00;99.90
29731;DHT22;16639;51.488;0.152;2023-12-14T01:36:08;7.00;99.90
29731;DHT22;16639;51.488;0.152;2023-12-14T01:38:38;6.90;99.90
29731;DHT22;16639;51.488;0.152;2023-12-14T01:41:06;6.90;99.90
29731;DHT22;16639;51.488;0.152;2023-12-14T01:43:33;6.90;99.90
29731;DHT22;16639;51.488;0.152;2023-12-14T01:46:00;6.90;99.90
29731;DHT22;16639;51.488;0.152;2023-12-14T01:48:30;6.90;99.90
29731;DHT22;16639;51.488;0.152;2023-12-14T01:50:59;6.90;99.90
29731;DHT22;16639;51.488;0.152;2023-12-14T01:53:26;6.90;99.90
29731;DHT22;16639;51.488;0.152;2023-12-14T01:55:54;6.90;99.90
29731;DHT22;16639;51.488;0.152;2023-12-14T01:58:22;6.90;99.90
29731;DHT22;16639;51.488;0.152;2023-12-14T02:03:49;6.90;99.90
29731;DHT22;16639;51.488;0.152;2023-12-14T02:06:18;6.90;99.90
29731;DHT22;16639;51.488;0.152;2023-12-14T02:08:45;7.20;99.90
29731;DHT22;16639;51.488;0.152;2023-12-14T02:11:15;7.20;99.90
29731;DHT22;16639;51.488;0.152;2023-12-14T02:13:43;6.90;99.90
29731;DHT22;16639;51.488;0.152;2023-12-14T02:16:11;7.40;99.90
29731;DHT22;16639;51.488;0.152;2023-12-14T02:18:38;6.90;99.90
29731;DHT22;16639;51.488;0.152;2023-12-14T02:21:07;7.00;99.90
29731;DHT22;16639;51.488;0.152;2023-12-14T02:23:34;7.00;99.90
29731;DHT22;16639;51.488;0.152;2023-12-14T02:26:01;6.90;99.90
29731;DHT22;16639;51.488;0.152;2023-12-14T02:28:29;6.90;99.90
29731;DHT22;16639;51.488;0.152;2023-12-14T02:30:57;7.00;99.90
29731;DHT22;16639;51.488;0.152;2023-12-14T02:33:24;6.90;99.90
29731;DHT22;16639;51.488;0.152;2023-12-14T02:35:52;6.90;99.90
29731;DHT22;16639;51.488;0.152;2023-12-14T02:38:19;8.10;99.90
29731;DHT22;16639;51.488;0.152;2023-12-14T02:40:47;7.80;99.90
29731;DHT22;16639;51.488;0.152;2023-12-14T02:43:14;6.00;99.90
29731;DHT22;16639;51.488;0.152;2023-12-14T02:45:42;6.90;99.90
29731;DHT22;16639;51.488;0.152;2023-12-14T02:48:09;6.90;99.90
29731;DHT22;16639;51.488;0.152;2023-12-14T02:50:39;6.90;99.90
29731;DHT22;16639;51.488;0.152;2023-12-14T02:53:10;6.90;99.90
29731;DHT22;16639;51.488;0.152;2023-12-14T02:55:37;6.90;99.90
29731;DHT22;16639;51.488;0.152;2023-12-14T02:58:05;6.90;99.90
29731;DHT22;16639;51.488;0.152;2023-12-14T03:00:33;6.90;99.90
29731;DHT22;16639;51.488;0.152;2023-12-14T03:03:00;6.80;99.90
29731;DHT22;16639;51.488;0.152;2023-12-14T03:05:27;7.40;99.90
29731;DHT22;16639;51.488;0.152;2023-12-14T03:07:55;6.90;99.90
29731;DHT22;16639;51.488;0.152;2023-12-14T03:10:22;6.10;99.90
29731;DHT22;16639;51.488;0.152;2023-12-14T03:12:50;6.90;99.90
29731;DHT22;16639;51.488;0.152;2023-12-14T03:15:18;6.90;99.90
29731;DHT22;16639;51.488;0.152;2023-12-14T03:17:45;6.90;99.90
29731;DHT22;16639;51.488;0.152;2023-12-14T03:20:16;6.90;99.90
29731;DHT22;16639;51.488;0.152;2023-12-14T03:22:43;6.80;99.90
29731;DHT22;16639;51.488;0.152;2023-12-14T03:25:11;6.80;99.90
29731;DHT22;16639;51.488;0.152;2023-12-14T03:27:38;6.70;99.90
29731;DHT22;16639;51.488;0.152;2023-12-14T03:30:06;6.80;99.90
29731;DHT22;16639;51.488;0.152;2023-12-14T03:32:37;6.70;99.90
29731;DHT22;16639;51.488;0.152;2023-12-14T03:35:05;7.40;99.90
29731;DHT22;16639;51.488;0.152;2023-12-14T03:37:33;6.70;99.90
29731;DHT22;16639;51.488;0.152;2023-12-14T03:40:00;6.70;99.90
29731;DHT22;16639;51.488;0.152;2023-12-14T03:42:28;6.60;99.90
29731;DHT22;16639;51.488;0.152;2023-12-14T03:44:55;6.70;99.90
29731;DHT22;16639;51.488;0.152;2023-12-14T03:47:23;6.70;99.90
29731;DHT22;16639;51.488;0.152;2023-12-14T03:49:50;6.60;99.90
29731;DHT22;16639;51.488;0.152;2023-12-14T03:52:18;6.60;99.90
29731;DHT22;16639;51.488;0.152;2023-12-14T03:54:45;6.60;99.90
29731;DHT22;16639;51.488;0.152;2023-12-14T03:57:13;6.50;99.90
29731;DHT22;16639;51.488;0.152;2023-12-14T03:59:40;6.50;99.90
29731;DHT22;16639;51.488;0.152;2023-12-14T04:02:08;6.40;99.90
29731;DHT22;16639;51.488;0.152;2023-12-14T04:04:35;7.40;99.90
29731;DHT22;16639;51.488;0.152;2023-12-14T04:07:03;6.40;99.90
29731;DHT22;16639;51.488;0.152;2023-12-14T04:09:30;6.70;99.90
29731;DHT22;16639;51.488;0.152;2023-12-14T04:11:58;6.40;99.90
29731;DHT22;16639;51.488;0.152;2023-12-14T04:14:25;6.40;99.90
29731;DHT22;16639;51.488;0.152;2023-12-14T04:16:53;6.40;99.90
29731;DHT22;16639;51.488;0.152;2023-12-14T04:19:21;6.40;99.90
29731;DHT22;16639;51.488;0.152;2023-12-14T04:21:49;6.40;99.90
29731;DHT22;16639;51.488;0.152;2023-12-14T04:24:16;6.70;99.90
29731;DHT22;16639;51.488;0.152;2023-12-14T04:26:45;7.10;99.90
29731;DHT22;16639;51.488;0.152;2023-12-14T04:29:12;6.40;99.90
29731;DHT22;16639;51.488;0.152;2023-12-14T04:31:40;6.40;99.90
29731;DHT22;16639;51.488;0.152;2023-12-14T04:34:07;6.40;99.90
29731;DHT22;16639;51.488;0.152;2023-12-14T04:36:39;6.40;99.90
29731;DHT22;16639;51.488;0.152;2023-12-14T04:39:06;6.40;99.90
29731;DHT22;16639;51.488;0.152;2023-12-14T04:41:34;6.30;99.90
29731;DHT22;16639;51.488;0.152;2023-12-14T04:44:02;6.30;99.90
29731;DHT22;16639;51.488;0.152;2023-12-14T04:46:29;6.20;99.90
29731;DHT22;16639;51.488;0.152;2023-12-14T04:48:57;6.40;99.90
29731;DHT22;16639;51.488;0.152;2023-12-14T04:51:24;6.30;99.90
29731;DHT22;16639;51.488;0.152;2023-12-14T04:53:52;6.30;99.90
29731;DHT22;16639;51.488;0.152;2023-12-14T04:56:19;6.30;99.90
29731;DHT22;16639;51.488;0.152;2023-12-14T04:58:47;6.30;99.90
29731;DHT22;16639;51.488;0.152;2023-12-14T05:01:14;6.50;99.90
29731;DHT22;16639;51.488;0.152;2023-12-14T05:03:41;6.30;99.90
29731;DHT22;16639;51.488;0.152;2023-12-14T05:06:09;6.30;99.90
29731;DHT22;16639;51.488;0.152;2023-12-14T05:08:37;6.20;99.90
29731;DHT22;16639;51.488;0.152;2023-12-14T05:11:04;6.20;99.90
29731;DHT22;16639;51.488;0.152;2023-12-14T05:13:32;6.20;99.90
29731;DHT22;16639;51.488;0.152;2023-12-14T05:15:59;6.20;99.90
29731;DHT22;16639;51.488;0.152;2023-12-14T05:18:28;6.20;99.90
29731;DHT22;16639;51.488;0.152;2023-12-14T05:20:55;6.20;99.90
29731;DHT22;16639;51.488;0.152;2023-12-14T05:23:23;6.20;99.90
29731;DHT22;16639;51.488;0.152;2023-12-14T05:25:51;6.20;99.90
29731;DHT22;16639;51.488;0.152;2023-12-14T05:28:18;5.90;99.90
29731;DHT22;16639;51.488;0.152;2023-12-14T05:30:45;6.20;99.90
29731;DHT22;16639;51.488;0.152;2023-12-14T05:33:13;6.30;99.90
29731;DHT22;16639;51.488;0.152;2023-12-14T05:35:41;6.20;99.90
29731;DHT22;16639;51.488;0.152;2023-12-14T05:38:08;6.20;99.90
29731;DHT22;16639;51.488;0.152;2023-12-14T05:40:35;6.10;99.90
29731;DHT22;16639;51.488;0.152;2023-12-14T05:43:03;6.20;99.90
29731;DHT22;16639;51.488;0.152;2023-12-14T05:45:31;6.20;99.90
29731;DHT22;16639;51.488;0.152;2023-12-14T05:47:58;6.10;99.90
29731;DHT22;16639;51.488;0.152;2023-12-14T05:50:26;6.10;99.90
29731;DHT22;16639;51.488;0.152;2023-12-14T05:52:54;6.20;99.90
29731;DHT22;16639;51.488;0.152;2023-12-14T05:55:21;6.10;99.90
29731;DHT22;16639;51.488;0.152;2023-12-14T05:57:49;6.10;99.90
29731;DHT22;16639;51.488;0.152;2023-12-14T06:00:18;6.20;99.90
29731;DHT22;16639;51.488;0.152;2023-12-14T06:02:45;6.20;99.90
29731;DHT22;16639;51.488;0.152;2023-12-14T06:05:13;6.20;99.90
29731;DHT22;16639;51.488;0.152;2023-12-14T06:07:43;5.60;99.90
29731;DHT22;16639;51.488;0.152;2023-12-14T06:10:11;6.20;99.90
29731;DHT22;16639;51.488;0.152;2023-12-14T06:12:38;6.20;99.90
29731;DHT22;16639;51.488;0.152;2023-12-14T06:15:06;6.20;99.90
29731;DHT22;16639;51.488;0.152;2023-12-14T06:17:33;6.10;99.90
29731;DHT22;16639;51.488;0.152;2023-12-14T06:20:01;6.20;99.90
29731;DHT22;16639;51.488;0.152;2023-12-14T06:22:31;6.10;99.90
29731;DHT22;16639;51.488;0.152;2023-12-14T06:24:59;6.10;99.90
29731;DHT22;16639;51.488;0.152;2023-12-14T06:27:26;6.20;99.90
29731;DHT22;16639;51.488;0.152;2023-12-14T06:29:54;6.10;99.90
29731;DHT22;16639;51.488;0.152;2023-12-14T06:32:21;6.20;99.90
29731;DHT22;16639;51.488;0.152;2023-12-14T06:34:48;6.20;99.90
29731;DHT22;16639;51.488;0.152;2023-12-14T06:37:16;6.20;99.90
29731;DHT22;16639;51.488;0.152;2023-12-14T06:39:43;6.10;99.90
29731;DHT22;16639;51.488;0.152;2023-12-14T06:42:11;6.10;99.90
29731;DHT22;16639;51.488;0.152;2023-12-14T06:44:39;7.30;99.90
29731;DHT22;16639;51.488;0.152;2023-12-14T06:47:06;6.10;99.90
29731;DHT22;16639;51.488;0.152;2023-12-14T06:49:34;6.20;99.90
29731;DHT22;16639;51.488;0.152;2023-12-14T06:52:01;6.20;99.90
29731;DHT22;16639;51.488;0.152;2023-12-14T06:54:29;6.20;99.90
29731;DHT22;16639;51.488;0.152;2023-12-14T06:56:56;6.90;99.90
29731;DHT22;16639;51.488;0.152;2023-12-14T06:59:24;6.20;99.90
29731;DHT22;16639;51.488;0.152;2023-12-14T07:01:51;6.10;99.90
29731;DHT22;16639;51.488;0.152;2023-12-14T07:04:19;6.10;99.90
29731;DHT22;16639;51.488;0.152;2023-12-14T07:06:53;6.00;99.90
29731;DHT22;16639;51.488;0.152;2023-12-14T07:09:20;6.10;99.90
29731;DHT22;16639;51.488;0.152;2023-12-14T07:11:48;6.10;99.90
29731;DHT22;16639;51.488;0.152;2023-12-14T07:14:15;6.10;99.90
29731;DHT22;16639;51.488;0.152;2023-12-14T07:16:43;6.10;99.90
29731;DHT22;16639;51.488;0.152;2023-12-14T07:19:10;6.10;99.90
29731;DHT22;16639;51.488;0.152;2023-12-14T07:21:38;6.10;99.90
29731;DHT22;16639;51.488;0.152;2023-12-14T07:24:06;6.10;99.90
29731;DHT22;16639;51.488;0.152;2023-12-14T07:26:34;6.10;99.90
29731;DHT22;16639;51.488;0.152;2023-12-14T07:33:16;6.10;99.90
29731;DHT22;16639;51.488;0.152;2023-12-14T07:37:12;6.10;99.90
29731;DHT22;16639;51.488;0.152;2023-12-14T07:40:49;6.10;99.90
29731;DHT22;16639;51.488;0.152;2023-12-14T07:43:17;6.20;99.90
29731;DHT22;16639;51.488;0.152;2023-12-14T07:45:45;5.50;99.90
29731;DHT22;16639;51.488;0.152;2023-12-14T07:48:13;6.20;99.90
29731;DHT22;16639;51.488;0.152;2023-12-14T07:50:40;5.10;99.90
29731;DHT22;16639;51.488;0.152;2023-12-14T07:53:08;6.20;99.90
29731;DHT22;16639;51.488;0.152;2023-12-14T07:55:35;6.20;99.90
29731;DHT22;16639;51.488;0.152;2023-12-14T07:58:03;6.30;99.90
29731;DHT22;16639;51.488;0.152;2023-12-14T08:00:33;6.30;99.90
29731;DHT22;16639;51.488;0.152;2023-12-14T08:03:00;6.30;99.90
29731;DHT22;16639;51.488;0.152;2023-12-14T08:05:28;6.30;99.90
29731;DHT22;16639;51.488;0.152;2023-12-14T08:07:56;6.30;99.90
29731;DHT22;16639;51.488;0.152;2023-12-14T08:10:58;6.20;99.90
29731;DHT22;16639;51.488;0.152;2023-12-14T08:14:24;6.30;99.90
29731;DHT22;16639;51.488;0.152;2023-12-14T08:16:54;6.30;99.90
29731;DHT22;16639;51.488;0.152;2023-12-14T08:19:22;6.20;99.90
29731;DHT22;16639;51.488;0.152;2023-12-14T08:21:49;6.20;99.90
29731;DHT22;16639;51.488;0.152;2023-12-14T08:24:20;6.20;99.90
29731;DHT22;16639;51.488;0.152;2023-12-14T08:26:57;6.20;99.90
29731;DHT22;16639;51.488;0.152;2023-12-14T08:29:25;5.80;99.90
29731;DHT22;16639;51.488;0.152;2023-12-14T08:31:55;6.20;99.90
29731;DHT22;16639;51.488;0.152;2023-12-14T08:34:25;5.60;99.90
29731;DHT22;16639;51.488;0.152;2023-12-14T08:36:53;6.20;99.90
29731;DHT22;16639;51.488;0.152;2023-12-14T08:39:21;6.20;99.90
29731;DHT22;16639;51.488;0.152;2023-12-14T08:41:48;6.30;99.90
29731;DHT22;16639;51.488;0.152;2023-12-14T08:44:16;6.30;99.90
29731;DHT22;16639;51.488;0.152;2023-12-14T08:46:45;6.30;99.90
29731;DHT22;16639;51.488;0.152;2023-12-14T08:49:13;6.20;99.90
29731;DHT22;16639;51.488;0.152;2023-12-14T08:51:42;6.20;99.90
29731;DHT22;16639;51.488;0.152;2023-12-14T08:54:09;6.20;99.90
29731;DHT22;16639;51.488;0.152;2023-12-14T08:56:36;6.20;99.90
29731;DHT22;16639;51.488;0.152;2023-12-14T08:59:04;6.20;99.90
29731;DHT22;16639;51.488;0.152;2023-12-14T09:01:33;6.20;99.90
29731;DHT22;16639;51.488;0.152;2023-12-14T09:04:08;6.20;99.90
29731;DHT22;16639;51.488;0.152;2023-12-14T09:06:35;6.30;99.90
29731;DHT22;16639;51.488;0.152;2023-12-14T09:09:04;6.10;99.90
29731;DHT22;16639;51.488;0.152;2023-12-14T09:12:00;6.20;99.90
29731;DHT22;16639;51.488;0.152;2023-12-14T09:14:27;6.20;99.90
29731;DHT22;16639;51.488;0.152;2023-12-14T09:16:55;6.10;99.90
29731;DHT22;16639;51.488;0.152;2023-12-14T09:19:23;6.10;99.90
29731;DHT22;16639;51.488;0.152;2023-12-14T09:21:50;6.20;99.90
29731;DHT22;16639;51.488;0.152;2023-12-14T09:24:18;6.10;99.90
29731;DHT22;16639;51.488;0.152;2023-12-14T09:26:45;6.10;99.90
29731;DHT22;16639;51.488;0.152;2023-12-14T09:29:12;6.20;99.90
29731;DHT22;16639;51.488;0.152;2023-12-14T09:31:42;6.30;99.90
29731;DHT22;16639;51.488;0.152;2023-12-14T09:34:11;6.20;99.90
29731;DHT22;16639;51.488;0.152;2023-12-14T09:36:39;6.20;99.90
29731;DHT22;16639;51.488;0.152;2023-12-14T09:39:07;6.20;99.90
29731;DHT22;16639;51.488;0.152;2023-12-14T09:41:38;6.10;99.90
29731;DHT22;16639;51.488;0.152;2023-12-14T09:44:07;6.10;99.90
29731;DHT22;16639;51.488;0.152;2023-12-14T09:46:37;6.20;99.90
29731;DHT22;16639;51.488;0.152;2023-12-14T09:49:05;6.20;99.90
29731;DHT22;16639;51.488;0.152;2023-12-14T09:51:35;6.20;99.90
29731;DHT22;16639;51.488;0.152;2023-12-14T09:54:03;6.20;99.90
29731;DHT22;16639;51.488;0.152;2023-12-14T09:56:31;6.20;99.90
29731;DHT22;16639;51.488;0.152;2023-12-14T09:58:58;6.20;99.90
29731;DHT22;16639;51.488;0.152;2023-12-14T10:01:28;6.30;99.90
29731;DHT22;16639;51.488;0.152;2023-12-14T10:04:17;6.20;99.90
29731;DHT22;16639;51.488;0.152;2023-12-14T10:06:46;6.30;99.90
29731;DHT22;16639;51.488;0.152;2023-12-14T10:09:14;6.40;99.90
29731;DHT22;16639;51.488;0.152;2023-12-14T10:11:45;6.40;99.90
29731;DHT22;16639;51.488;0.152;2023-12-14T10:14:20;6.40;99.90
29731;DHT22;16639;51.488;0.152;2023-12-14T10:16:49;6.70;99.90
29731;DHT22;16639;51.488;0.152;2023-12-14T10:19:18;6.50;99.90
29731;DHT22;16639;51.488;0.152;2023-12-14T10:21:47;6.60;99.90
29731;DHT22;16639;51.488;0.152;2023-12-14T10:24:16;6.50;99.90
29731;DHT22;16639;51.488;0.152;2023-12-14T10:26:47;6.70;99.90
29731;DHT22;16639;51.488;0.152;2023-12-14T10:29:15;6.80;99.90
29731;DHT22;16639;51.488;0.152;2023-12-14T10:31:43;7.80;99.90
29731;DHT22;16639;51.488;0.152;2023-12-14T10:34:11;6.80;99.90
29731;DHT22;16639;51.488;0.152;2023-12-14T10:36:43;6.80;99.90
29731;DHT22;16639;51.488;0.152;2023-12-14T10:39:14;6.90;99.90
29731;DHT22;16639;51.488;0.152;2023-12-14T10:41:49;6.90;99.90
29731;DHT22;16639;51.488;0.152;2023-12-14T10:44:27;7.00;99.90
29731;DHT22;16639;51.488;0.152;2023-12-14T10:47:17;7.00;99.90
29731;DHT22;16639;51.488;0.152;2023-12-14T10:49:50;7.10;99.90
29731;DHT22;16639;51.488;0.152;2023-12-14T10:52:20;7.10;99.90
29731;DHT22;16639;51.488;0.152;2023-12-14T10:54:52;7.20;99.90
29731;DHT22;16639;51.488;0.152;2023-12-14T10:57:21;7.20;99.90
29731;DHT22;16639;51.488;0.152;2023-12-14T10:59:50;7.30;99.90
29731;DHT22;16639;51.488;0.152;2023-12-14T11:02:22;7.30;99.90
29731;DHT22;16639;51.488;0.152;2023-12-14T11:04:59;7.40;99.90
29731;DHT22;16639;51.488;0.152;2023-12-14T11:07:53;7.30;99.90
29731;DHT22;16639;51.488;0.152;2023-12-14T11:10:27;7.40;99.90
29731;DHT22;16639;51.488;0.152;2023-12-14T11:13:01;7.40;99.90
29731;DHT22;16639;51.488;0.152;2023-12-14T11:15:30;7.40;99.90
29731;DHT22;16639;51.488;0.152;2023-12-14T11:20:59;7.50;99.90
29731;DHT22;16639;51.488;0.152;2023-12-14T11:23:36;7.50;99.90
29731;DHT22;16639;51.488;0.152;2023-12-14T11:26:09;7.50;99.90
29731;DHT22;16639;51.488;0.152;2023-12-14T11:28:39;8.30;99.90
29731;DHT22;16639;51.488;0.152;2023-12-14T11:31:10;7.60;99.90
29731;DHT22;16639;51.488;0.152;2023-12-14T11:33:38;7.60;99.90
29731;DHT22;16639;51.488;0.152;2023-12-14T11:36:14;7.40;99.90
29731;DHT22;16639;51.488;0.152;2023-12-14T11:38:42;7.60;99.90
29731;DHT22;16639;51.488;0.152;2023-12-14T11:41:10;7.70;99.90
29731;DHT22;16639;51.488;0.152;2023-12-14T11:43:42;7.70;99.90
29731;DHT22;16639;51.488;0.152;2023-12-14T11:46:11;7.70;99.90
29731;DHT22;16639;51.488;0.152;2023-12-14T11:48:39;7.70;99.90
29731;DHT22;16639;51.488;0.152;2023-12-14T11:51:15;7.80;99.90
29731;DHT22;16639;51.488;0.152;2023-12-14T11:53:47;7.80;99.90
29731;DHT22;16639;51.488;0.152;2023-12-14T11:56:18;8.40;99.90
29731;DHT22;16639;51.488;0.152;2023-12-14T11:58:46;7.90;99.90
29731;DHT22;16639;51.488;0.152;2023-12-14T12:01:16;7.80;99.90
29731;DHT22;16639;51.488;0.152;2023-12-14T12:03:45;7.90;99.90
29731;DHT22;16639;51.488;0.152;2023-12-14T12:06:26;7.90;99.90
29731;DHT22;16639;51.488;0.152;2023-12-14T12:08:57;7.90;99.90
29731;DHT22;16639;51.488;0.152;2023-12-14T12:11:26;7.90;99.90
29731;DHT22;16639;51.488;0.152;2023-12-14T12:13:56;8.00;99.90
29731;DHT22;16639;51.488;0.152;2023-12-14T12:16:27;7.90;99.90
29731;DHT22;16639;51.488;0.152;2023-12-14T12:18:55;8.70;99.90
29731;DHT22;16639;51.488;0.152;2023-12-14T12:21:22;8.00;99.90
29731;DHT22;16639;51.488;0.152;2023-12-14T12:23:50;8.00;99.90
29731;DHT22;16639;51.488;0.152;2023-12-14T12:26:18;8.10;99.90
29731;DHT22;16639;51.488;0.152;2023-12-14T12:28:45;8.10;99.90
29731;DHT22;16639;51.488;0.152;2023-12-14T12:31:16;8.20;99.90
29731;DHT22;16639;51.488;0.152;2023-12-14T12:33:43;8.20;99.90
29731;DHT22;16639;51.488;0.152;2023-12-14T12:36:13;8.20;99.90
29731;DHT22;16639;51.488;0.152;2023-12-14T12:38:40;8.30;99.90
29731;DHT22;16639;51.488;0.152;2023-12-14T12:41:10;8.30;99.90
29731;DHT22;16639;51.488;0.152;2023-12-14T12:43:37;8.30;99.90
29731;DHT22;16639;51.488;0.152;2023-12-14T12:46:05;8.30;99.90
29731;DHT22;16639;51.488;0.152;2023-12-14T12:48:32;8.30;99.90
29731;DHT22;16639;51.488;0.152;2023-12-14T12:51:00;8.30;99.90
29731;DHT22;16639;51.488;0.152;2023-12-14T12:53:27;8.30;99.90
29731;DHT22;16639;51.488;0.152;2023-12-14T12:55:55;8.90;99.90
29731;DHT22;16639;51.488;0.152;2023-12-14T12:58:22;8.30;99.90
29731;DHT22;16639;51.488;0.152;2023-12-14T13:00:50;8.30;99.90
29731;DHT22;16639;51.488;0.152;2023-12-14T13:03:17;8.30;99.90
29731;DHT22;16639;51.488;0.152;2023-12-14T13:05:45;8.20;99.90
29731;DHT22;16639;51.488;0.152;2023-12-14T13:08:13;8.20;99.90
29731;DHT22;16639;51.488;0.152;2023-12-14T13:10:40;8.20;99.90
29731;DHT22;16639;51.488;0.152;2023-12-14T13:13:08;8.20;99.90
29731;DHT22;16639;51.488;0.152;2023-12-14T13:15:38;8.30;99.90
29731;DHT22;16639;51.488;0.152;2023-12-14T13:18:06;8.20;99.90
29731;DHT22;16639;51.488;0.152;2023-12-14T13:20:34;8.20;99.90
29731;DHT22;16639;51.488;0.152;2023-12-14T13:23:01;8.20;99.90
29731;DHT22;16639;51.488;0.152;2023-12-14T13:25:29;8.30;99.90
29731;DHT22;16639;51.488;0.152;2023-12-14T13:27:56;8.30;99.90
29731;DHT22;16639;51.488;0.152;2023-12-14T13:30:24;8.30;99.90
29731;DHT22;16639;51.488;0.152;2023-12-14T13:32:53;8.30;99.90
29731;DHT22;16639;51.488;0.152;2023-12-14T13:35:21;8.20;99.90
29731;DHT22;16639;51.488;0.152;2023-12-14T13:37:51;9.30;99.90
29731;DHT22;16639;51.488;0.152;2023-12-14T13:40:19;8.30;99.90
29731;DHT22;16639;51.488;0.152;2023-12-14T13:42:46;8.30;99.90
29731;DHT22;16639;51.488;0.152;2023-12-14T13:45:29;8.30;99.90
29731;DHT22;16639;51.488;0.152;2023-12-14T13:47:58;8.30;99.90
29731;DHT22;16639;51.488;0.152;2023-12-14T13:50:26;8.30;99.90
29731;DHT22;16639;51.488;0.152;2023-12-14T13:52:56;8.30;99.90
29731;DHT22;16639;51.488;0.152;2023-12-14T13:55:24;8.30;99.90
29731;DHT22;16639;51.488;0.152;2023-12-14T13:57:51;8.30;99.90
29731;DHT22;16639;51.488;0.152;2023-12-14T14:00:19;8.30;99.90
29731;DHT22;16639;51.488;0.152;2023-12-14T14:02:46;8.50;99.90
29731;DHT22;16639;51.488;0.152;2023-12-14T14:05:14;8.30;99.90
29731;DHT22;16639;51.488;0.152;2023-12-14T14:07:42;7.90;99.90
29731;DHT22;16639;51.488;0.152;2023-12-14T14:10:09;8.30;99.90
29731;DHT22;16639;51.488;0.152;2023-12-14T14:12:37;8.20;99.90
29731;DHT22;16639;51.488;0.152;2023-12-14T14:15:06;8.30;99.90
29731;DHT22;16639;51.488;0.152;2023-12-14T14:17:33;8.30;99.90
29731;DHT22;16639;51.488;0.152;2023-12-14T14:20:14;8.20;99.90
29731;DHT22;16639;51.488;0.152;2023-12-14T14:22:42;8.20;99.90
29731;DHT22;16639;51.488;0.152;2023-12-14T14:25:10;8.20;99.90
29731;DHT22;16639;51.488;0.152;2023-12-14T14:27:37;8.20;99.90
29731;DHT22;16639;51.488;0.152;2023-12-14T14:30:08;8.20;99.90
29731;DHT22;16639;51.488;0.152;2023-12-14T14:32:35;8.20;99.90
29731;DHT22;16639;51.488;0.152;2023-12-14T14:35:05;8.20;99.90
29731;DHT22;16639;51.488;0.152;2023-12-14T14:37:34;8.60;99.90
29731;DHT22;16639;51.488;0.152;2023-12-14T14:40:01;8.20;99.90
29731;DHT22;16639;51.488;0.152;2023-12-14T14:42:31;8.20;99.90
29731;DHT22;16639;51.488;0.152;2023-12-14T14:44:59;8.30;99.90
29731;DHT22;16639;51.488;0.152;2023-12-14T14:47:27;8.30;99.90
29731;DHT22;16639;51.488;0.152;2023-12-14T14:49:55;8.30;99.90
29731;DHT22;16639;51.488;0.152;2023-12-14T14:52:31;8.30;99.90
29731;DHT22;16639;51.488;0.152;2023-12-14T14:55:05;8.30;99.90
29731;DHT22;16639;51.488;0.152;2023-12-14T14:57:44;8.30;99.90
29731;DHT22;16639;51.488;0.152;2023-12-14T15:01:19;8.30;99.90
29731;DHT22;16639;51.488;0.152;2023-12-14T15:03:46;8.30;99.90
29731;DHT22;16639;51.488;0.152;2023-12-14T15:06:14;8.30;99.90
29731;DHT22;16639;51.488;0.152;2023-12-14T15:08:42;8.30;99.90
29731;DHT22;16639;51.488;0.152;2023-12-14T15:11:15;8.30;99.90
29731;DHT22;16639;51.488;0.152;2023-12-14T15:13:42;8.50;99.90
29731;DHT22;16639;51.488;0.152;2023-12-14T15:16:10;8.30;99.90
29731;DHT22;16639;51.488;0.152;2023-12-14T15:18:39;8.30;99.90
29731;DHT22;16639;51.488;0.152;2023-12-14T15:21:11;8.30;99.90
29731;DHT22;16639;51.488;0.152;2023-12-14T15:23:43;8.40;99.90
29731;DHT22;16639;51.488;0.152;2023-12-14T15:26:12;8.30;99.90
29731;DHT22;16639;51.488;0.152;2023-12-14T15:28:40;8.30;99.90
29731;DHT22;16639;51.488;0.152;2023-12-14T15:31:08;8.40;99.90
29731;DHT22;16639;51.488;0.152;2023-12-14T15:33:38;8.40;99.90
29731;DHT22;16639;51.488;0.152;2023-12-14T15:36:06;8.40;99.90
29731;DHT22;16639;51.488;0.152;2023-12-14T15:38:35;8.40;99.90
29731;DHT22;16639;51.488;0.152;2023-12-14T15:41:09;8.40;99.90
29731;DHT22;16639;51.488;0.152;2023-12-14T15:43:37;8.40;99.90
29731;DHT22;16639;51.488;0.152;2023-12-14T15:46:22;8.30;99.90
29731;DHT22;16639;51.488;0.152;2023-12-14T15:48:50;8.50;99.90
29731;DHT22;16639;51.488;0.152;2023-12-14T15:51:17;8.30;99.90
29731;DHT22;16639;51.488;0.152;2023-12-14T15:53:45;8.30;99.90
29731;DHT22;16639;51.488;0.152;2023-12-14T15:56:12;8.40;99.90
29731;DHT22;16639;51.488;0.152;2023-12-14T15:58:40;8.30;99.90
29731;DHT22;16639;51.488;0.152;2023-12-14T16:01:07;8.40;99.90
29731;DHT22;16639;51.488;0.152;2023-12-14T16:03:36;8.40;99.90
29731;DHT22;16639;51.488;0.152;2023-12-14T16:06:04;8.40;99.90
29731;DHT22;16639;51.488;0.152;2023-12-14T16:08:32;8.40;99.90